createdAt,value
2019-03-16T00:00:18.824Z,6.20
2019-03-16T00:02:48.071Z,6.30
2019-03-16T00:05:17.374Z,6.30
2019-03-16T00:07:46.950Z,6.30
2019-03-16T00:10:16.190Z,6.30
2019-03-16T00:12:45.506Z,6.20
2019-03-16T00:15:14.815Z,6.30
2019-03-16T00:17:44.136Z,6.30
2019-03-16T00:20:13.494Z,6.30
2019-03-16T00:22:42.744Z,6.20
2019-03-16T00:25:12.063Z,6.20
2019-03-16T00:27:41.385Z,6.20
2019-03-16T00:30:10.724Z,6.20
2019-03-16T00:32:40.072Z,6.20
2019-03-16T00:35:09.313Z,6.10
2019-03-16T00:37:39.627Z,6.10
2019-03-16T00:40:09.651Z,6.10
2019-03-16T00:42:38.873Z,6.10
2019-03-16T00:45:08.614Z,6.20
2019-03-16T00:47:37.845Z,6.40
2019-03-16T00:50:07.496Z,6.40
2019-03-16T00:52:36.792Z,6.30
2019-03-16T00:55:07.242Z,6.30
2019-03-16T00:57:36.481Z,6.40
2019-03-16T01:00:06.355Z,6.40
2019-03-16T01:02:36.220Z,6.40
2019-03-16T01:05:06.242Z,6.40
2019-03-16T01:07:35.481Z,6.50
2019-03-16T01:10:04.892Z,6.50
2019-03-16T01:12:34.234Z,6.50
2019-03-16T01:15:05.587Z,6.50
2019-03-16T01:17:34.906Z,6.50
2019-03-16T01:20:04.240Z,6.10
2019-03-16T01:22:33.505Z,5.60
2019-03-16T01:25:02.739Z,5.10
2019-03-16T01:27:33.966Z,4.90
2019-03-16T01:30:03.285Z,4.70
2019-03-16T01:32:40.489Z,4.60
2019-03-16T01:35:03.539Z,4.50
2019-03-16T01:37:32.781Z,4.50
2019-03-16T01:40:02.014Z,4.40
2019-03-16T01:42:31.811Z,4.50
2019-03-16T01:45:01.124Z,4.50
2019-03-16T01:47:30.418Z,4.50
2019-03-16T01:49:59.727Z,4.50
2019-03-16T01:52:29.042Z,4.50
2019-03-16T01:54:58.329Z,4.50
2019-03-16T01:57:27.623Z,4.50
2019-03-16T01:59:56.929Z,4.60
2019-03-16T02:02:26.190Z,4.50
2019-03-16T02:04:55.353Z,4.60
2019-03-16T02:07:24.661Z,4.60
2019-03-16T02:09:53.972Z,4.70
2019-03-16T02:12:23.499Z,4.70
2019-03-16T02:14:52.739Z,4.80
2019-03-16T02:17:21.959Z,4.90
2019-03-16T02:19:51.286Z,5.00
2019-03-16T02:22:20.511Z,5.00
2019-03-16T02:24:49.826Z,5.00
2019-03-16T02:27:19.063Z,5.00
2019-03-16T02:29:48.291Z,5.00
2019-03-16T02:32:17.611Z,5.00
2019-03-16T02:34:46.830Z,5.00
2019-03-16T02:37:16.144Z,4.90
2019-03-16T02:39:45.446Z,4.90
2019-03-16T02:42:14.738Z,4.90
2019-03-16T02:44:43.975Z,4.90
2019-03-16T02:47:13.283Z,5.00
2019-03-16T02:49:42.520Z,5.00
2019-03-16T02:52:11.847Z,5.10
2019-03-16T02:54:41.154Z,5.10
2019-03-16T02:57:10.398Z,5.20
2019-03-16T02:59:39.644Z,5.30
2019-03-16T03:02:08.970Z,5.40
2019-03-16T03:04:38.189Z,5.40
2019-03-16T03:07:07.517Z,5.40
2019-03-16T03:09:36.800Z,5.50
2019-03-16T03:12:06.038Z,5.50
2019-03-16T03:14:35.276Z,5.50
2019-03-16T03:17:04.635Z,5.50
2019-03-16T03:19:33.950Z,5.40
2019-03-16T03:22:03.698Z,5.40
2019-03-16T03:24:33.612Z,5.30
2019-03-16T03:27:02.931Z,5.30
2019-03-16T03:29:32.250Z,5.30
2019-03-16T03:32:01.504Z,5.30
2019-03-16T03:34:30.744Z,5.40
2019-03-16T03:37:00.815Z,5.40
2019-03-16T03:39:30.076Z,5.50
2019-03-16T03:41:59.395Z,5.50
2019-03-16T03:44:28.707Z,5.50
2019-03-16T03:46:59.448Z,5.40
2019-03-16T03:49:29.364Z,5.40
2019-03-16T03:51:58.731Z,5.40
2019-03-16T03:54:28.082Z,5.40
2019-03-16T03:56:57.306Z,5.40
2019-03-16T03:59:26.534Z,5.30
2019-03-16T04:01:55.897Z,5.30
2019-03-16T04:04:25.261Z,5.30
2019-03-16T04:06:54.550Z,5.30
2019-03-16T04:09:23.914Z,5.30
2019-03-16T04:11:53.161Z,5.30
2019-03-16T04:14:22.380Z,5.40
2019-03-16T04:16:51.638Z,5.30
2019-03-16T04:19:20.964Z,5.40
2019-03-16T04:21:50.239Z,5.30
2019-03-16T04:24:19.481Z,5.40
2019-03-16T04:26:48.787Z,5.40
2019-03-16T04:29:18.125Z,5.40
2019-03-16T04:31:47.435Z,5.30
2019-03-16T04:34:28.558Z,5.40
2019-03-16T04:36:47.535Z,5.40
2019-03-16T04:39:16.826Z,5.40
2019-03-16T04:41:46.094Z,5.40
2019-03-16T04:44:15.474Z,5.40
2019-03-16T04:46:44.744Z,5.50
2019-03-16T04:49:14.365Z,5.50
2019-03-16T04:51:43.670Z,5.50
2019-03-16T04:54:12.994Z,5.50
2019-03-16T04:56:42.330Z,5.50
2019-03-16T04:59:11.635Z,5.50
2019-03-16T05:01:40.875Z,5.60
2019-03-16T05:04:10.199Z,5.60
2019-03-16T05:06:39.534Z,5.60
2019-03-16T05:09:08.772Z,5.60
2019-03-16T05:11:38.078Z,5.60
2019-03-16T05:14:07.359Z,5.60
2019-03-16T05:16:36.607Z,5.60
2019-03-16T05:19:05.941Z,5.60
2019-03-16T05:21:35.191Z,5.60
2019-03-16T05:24:04.436Z,5.50
2019-03-16T05:26:33.753Z,5.40
2019-03-16T05:29:03.381Z,5.40
2019-03-16T05:31:32.727Z,5.40
2019-03-16T05:34:01.964Z,5.40
2019-03-16T05:36:31.273Z,5.40
2019-03-16T05:39:00.928Z,5.40
2019-03-16T05:41:30.173Z,5.40
2019-03-16T05:43:59.505Z,5.40
2019-03-16T05:46:28.739Z,5.40
2019-03-16T05:48:58.096Z,5.40
2019-03-16T05:51:27.325Z,5.40
2019-03-16T05:53:56.526Z,5.40
2019-03-16T05:56:25.795Z,5.50
2019-03-16T05:58:55.109Z,5.50
2019-03-16T06:01:24.412Z,5.60
2019-03-16T06:03:53.724Z,5.60
2019-03-16T06:06:22.960Z,5.60
2019-03-16T06:08:52.244Z,5.60
2019-03-16T06:11:21.477Z,5.60
2019-03-16T06:13:50.807Z,5.70
2019-03-16T06:16:20.063Z,5.70
2019-03-16T06:18:49.381Z,5.70
2019-03-16T06:21:18.661Z,5.70
2019-03-16T06:23:47.901Z,5.70
2019-03-16T06:26:17.211Z,5.70
2019-03-16T06:28:46.479Z,5.70
2019-03-16T06:31:15.997Z,5.70
2019-03-16T06:33:45.318Z,5.70
2019-03-16T06:36:14.640Z,5.70
2019-03-16T06:38:43.949Z,5.70
2019-03-16T06:41:13.294Z,5.80
2019-03-16T06:43:42.617Z,5.80
2019-03-16T06:46:11.871Z,5.80
2019-03-16T06:48:41.231Z,5.80
2019-03-16T06:51:10.462Z,5.80
2019-03-16T06:53:40.193Z,5.70
2019-03-16T06:56:09.527Z,5.80
2019-03-16T06:58:38.850Z,5.70
2019-03-16T07:01:08.209Z,5.70
2019-03-16T07:03:37.535Z,5.70
2019-03-16T07:06:07.091Z,5.70
2019-03-16T07:08:36.550Z,5.60
2019-03-16T07:11:06.010Z,5.70
2019-03-16T07:13:36.577Z,5.70
2019-03-16T07:16:05.914Z,5.70
2019-03-16T07:18:35.296Z,5.70
2019-03-16T07:21:04.782Z,5.80
2019-03-16T07:23:34.200Z,5.80
2019-03-16T07:26:14.075Z,5.80
2019-03-16T07:28:34.882Z,5.90
2019-03-16T07:31:04.122Z,5.90
2019-03-16T07:33:33.480Z,6.00
2019-03-16T07:36:02.851Z,6.00
2019-03-16T07:38:51.198Z,6.00
2019-03-16T07:41:20.602Z,6.00
2019-03-16T07:43:50.033Z,6.00
2019-03-16T07:46:20.147Z,6.00
2019-03-16T07:48:49.519Z,6.00
2019-03-16T07:51:18.899Z,6.10
2019-03-16T07:53:48.148Z,6.10
2019-03-16T07:56:17.811Z,6.10
2019-03-16T07:58:47.365Z,6.10
2019-03-16T08:01:16.708Z,6.10
2019-03-16T08:03:46.147Z,6.10
2019-03-16T08:06:15.447Z,6.10
2019-03-16T08:08:46.250Z,6.20
2019-03-16T08:11:15.662Z,6.20
2019-03-16T08:13:44.915Z,6.20
2019-03-16T08:16:14.849Z,6.20
2019-03-16T08:18:44.272Z,6.30
2019-03-16T08:21:13.921Z,6.20
2019-03-16T08:23:43.482Z,6.30
2019-03-16T08:26:12.821Z,6.30
2019-03-16T08:28:42.165Z,6.30
2019-03-16T08:31:12.303Z,6.30
2019-03-16T08:33:41.750Z,6.30
2019-03-16T08:36:11.065Z,6.30
2019-03-16T08:38:40.390Z,6.40
2019-03-16T08:41:09.743Z,6.40
2019-03-16T08:43:38.992Z,6.50
2019-03-16T08:46:08.316Z,6.50
2019-03-16T08:48:38.387Z,6.60
2019-03-16T08:51:07.713Z,6.60
2019-03-16T08:53:37.053Z,6.70
2019-03-16T08:56:06.832Z,6.70
2019-03-16T08:58:36.150Z,6.70
2019-03-16T09:01:05.403Z,6.70
2019-03-16T09:03:43.448Z,6.70
2019-03-16T09:06:06.070Z,6.70
2019-03-16T09:08:36.293Z,6.70
2019-03-16T09:11:05.826Z,6.70
2019-03-16T09:13:35.059Z,6.70
2019-03-16T09:16:04.403Z,6.70
2019-03-16T09:18:33.725Z,6.60
2019-03-16T09:21:02.968Z,6.70
2019-03-16T09:23:32.336Z,6.60
2019-03-16T09:26:01.631Z,6.60
2019-03-16T09:28:30.871Z,6.60
2019-03-16T09:31:00.218Z,6.60
2019-03-16T09:33:29.559Z,6.60
2019-03-16T09:35:58.825Z,6.60
2019-03-16T09:38:28.060Z,6.60
2019-03-16T09:40:57.366Z,6.60
2019-03-16T09:43:26.687Z,6.60
2019-03-16T09:45:56.206Z,6.70
2019-03-16T09:48:25.454Z,6.60
2019-03-16T09:50:54.752Z,6.70
2019-03-16T09:53:24.102Z,6.70
2019-03-16T09:55:53.438Z,6.60
2019-03-16T09:58:31.107Z,6.50
2019-03-16T10:00:53.727Z,6.40
2019-03-16T10:03:22.970Z,6.30
2019-03-16T10:05:52.318Z,6.30
2019-03-16T10:08:21.647Z,6.30
2019-03-16T10:10:50.963Z,6.30
2019-03-16T10:13:20.303Z,6.40
2019-03-16T10:15:49.542Z,6.50
2019-03-16T10:18:19.203Z,6.50
2019-03-16T10:20:48.615Z,6.70
2019-03-16T10:23:17.856Z,6.70
2019-03-16T10:25:47.159Z,6.80
2019-03-16T10:28:16.489Z,6.90
2019-03-16T10:30:45.797Z,6.90
2019-03-16T10:33:15.107Z,7.00
2019-03-16T10:35:44.516Z,7.00
2019-03-16T10:38:13.805Z,6.90
2019-03-16T10:40:43.653Z,7.00
2019-03-16T10:43:12.959Z,7.00
2019-03-16T10:45:43.543Z,7.00
2019-03-16T10:48:12.772Z,7.00
2019-03-16T10:50:42.077Z,7.00
2019-03-16T10:53:11.337Z,7.00
2019-03-16T10:55:40.731Z,7.00
2019-03-16T10:58:10.389Z,6.90
2019-03-16T11:00:42.016Z,6.90
2019-03-16T11:03:11.305Z,6.90
2019-03-16T11:05:40.620Z,7.00
2019-03-16T11:08:09.866Z,7.00
2019-03-16T11:10:39.183Z,7.10
2019-03-16T11:13:08.507Z,7.10
2019-03-16T11:15:37.777Z,7.10
2019-03-16T11:18:07.105Z,7.10
2019-03-16T11:20:36.359Z,7.00
2019-03-16T11:23:05.708Z,7.00
2019-03-16T11:25:35.029Z,6.90
2019-03-16T11:28:04.305Z,6.80
2019-03-16T11:30:33.595Z,6.80
2019-03-16T11:33:02.953Z,6.80
2019-03-16T11:35:32.304Z,6.80
2019-03-16T11:38:01.778Z,6.70
2019-03-16T11:40:31.542Z,6.70
2019-03-16T11:43:00.949Z,6.70
2019-03-16T11:45:30.383Z,6.70
2019-03-16T11:48:00.095Z,6.80
2019-03-16T11:50:29.475Z,6.80
2019-03-16T11:52:59.887Z,6.80
2019-03-16T11:55:29.339Z,6.90
2019-03-16T11:57:58.830Z,7.00
2019-03-16T12:00:28.248Z,7.00
2019-03-16T12:02:58.016Z,7.00
2019-03-16T12:05:27.408Z,7.10
2019-03-16T12:07:56.779Z,7.20
2019-03-16T12:10:26.495Z,7.20
2019-03-16T12:12:55.894Z,7.30
2019-03-16T12:15:25.266Z,7.40
2019-03-16T12:17:54.726Z,7.40
2019-03-16T12:20:24.164Z,7.40
2019-03-16T12:22:53.489Z,7.50
2019-03-16T12:25:22.830Z,7.40
2019-03-16T12:27:52.171Z,7.40
2019-03-16T12:30:21.982Z,7.40
2019-03-16T12:32:51.544Z,7.40
2019-03-16T12:35:20.905Z,7.40
2019-03-16T12:37:50.147Z,7.50
2019-03-16T12:40:19.491Z,7.50
2019-03-16T12:42:49.225Z,7.50
2019-03-16T12:45:20.412Z,7.50
2019-03-16T12:47:49.556Z,7.50
2019-03-16T12:50:19.491Z,7.50
2019-03-16T12:52:48.809Z,7.40
2019-03-16T12:55:18.040Z,7.40
2019-03-16T12:57:48.085Z,7.40
2019-03-16T13:00:17.849Z,7.50
2019-03-16T13:02:47.096Z,7.60
2019-03-16T13:05:16.348Z,7.60
2019-03-16T13:07:45.604Z,7.70
2019-03-16T13:10:14.864Z,7.80
2019-03-16T13:12:44.184Z,7.80
2019-03-16T13:15:13.941Z,7.90
2019-03-16T13:17:43.866Z,8.00
2019-03-16T13:20:14.744Z,8.10
2019-03-16T13:22:45.124Z,8.20
2019-03-16T13:25:14.660Z,8.30
2019-03-16T13:27:43.906Z,8.50
2019-03-16T13:30:14.014Z,8.50
2019-03-16T13:32:43.251Z,8.60
2019-03-16T13:35:12.872Z,8.50
2019-03-16T13:37:42.744Z,8.30
2019-03-16T13:40:12.694Z,8.10
2019-03-16T13:42:42.016Z,8.00
2019-03-16T13:45:11.617Z,7.90
2019-03-16T13:47:40.915Z,8.30
2019-03-16T13:50:11.518Z,8.50
2019-03-16T13:52:41.051Z,8.50
2019-03-16T13:55:11.537Z,8.50
2019-03-16T13:57:40.930Z,8.50
2019-03-16T14:00:12.563Z,8.50
2019-03-16T14:02:42.206Z,8.50
2019-03-16T14:05:11.654Z,8.80
2019-03-16T14:07:41.533Z,9.10
2019-03-16T14:10:14.030Z,9.20
2019-03-16T14:12:43.790Z,9.00
2019-03-16T14:15:13.138Z,8.80
2019-03-16T14:17:43.174Z,8.60
2019-03-16T14:20:13.953Z,8.50
2019-03-16T14:22:43.790Z,8.30
2019-03-16T14:25:13.159Z,8.30
2019-03-16T14:27:42.721Z,8.10
2019-03-16T14:30:25.598Z,8.10
2019-03-16T14:32:44.191Z,8.10
2019-03-16T14:35:13.613Z,8.00
2019-03-16T14:37:42.950Z,8.00
2019-03-16T14:40:12.879Z,7.90
2019-03-16T14:42:43.175Z,8.00
2019-03-16T14:45:12.502Z,8.00
2019-03-16T14:47:41.841Z,8.00
2019-03-16T14:50:16.289Z,8.00
2019-03-16T14:52:45.087Z,8.00
2019-03-16T14:55:14.418Z,8.00
2019-03-16T14:57:43.771Z,8.00
2019-03-16T15:00:14.056Z,7.90
2019-03-16T15:02:46.182Z,8.00
2019-03-16T15:05:15.499Z,7.90
2019-03-16T15:07:45.263Z,7.90
2019-03-16T15:10:14.732Z,7.80
2019-03-16T15:12:44.091Z,7.80
2019-03-16T15:15:13.524Z,7.80
2019-03-16T15:17:43.410Z,7.80
2019-03-16T15:20:12.767Z,7.80
2019-03-16T15:22:42.115Z,7.70
2019-03-16T15:25:11.693Z,7.70
2019-03-16T15:27:41.230Z,7.70
2019-03-16T15:30:12.716Z,7.70
2019-03-16T15:32:42.629Z,7.70
2019-03-16T15:35:12.022Z,7.70
2019-03-16T15:37:41.355Z,7.70
2019-03-16T15:40:10.936Z,7.70
2019-03-16T15:42:40.351Z,7.70
2019-03-16T15:45:13.496Z,7.70
2019-03-16T15:47:42.885Z,7.70
2019-03-16T15:50:12.263Z,7.70
2019-03-16T15:52:41.538Z,7.70
2019-03-16T15:55:10.989Z,7.70
2019-03-16T15:57:42.460Z,7.70
2019-03-16T16:00:12.678Z,7.80
2019-03-16T16:02:42.028Z,7.80
2019-03-16T16:05:11.503Z,7.80
2019-03-16T16:07:40.854Z,7.80
2019-03-16T16:10:10.988Z,7.80
2019-03-16T16:12:40.859Z,7.80
2019-03-16T16:15:10.473Z,7.70
2019-03-16T16:17:40.059Z,7.70
2019-03-16T16:20:10.184Z,7.70
2019-03-16T16:22:39.451Z,7.60
2019-03-16T16:25:09.479Z,7.60
2019-03-16T16:27:38.841Z,7.50
2019-03-16T16:30:10.116Z,7.50
2019-03-16T16:32:39.595Z,7.50
2019-03-16T16:35:10.071Z,7.50
2019-03-16T16:37:40.156Z,7.40
2019-03-16T16:40:10.439Z,7.40
2019-03-16T16:42:40.116Z,7.40
2019-03-16T16:45:10.510Z,7.40
2019-03-16T16:47:39.783Z,7.40
2019-03-16T16:50:11.323Z,7.30
2019-03-16T16:52:40.750Z,7.30
2019-03-16T16:55:10.162Z,7.30
2019-03-16T16:57:39.572Z,7.30
2019-03-16T17:00:12.243Z,7.20
2019-03-16T17:02:41.502Z,7.20
2019-03-16T17:05:10.856Z,7.20
2019-03-16T17:07:40.899Z,7.10
2019-03-16T17:10:12.223Z,7.10
2019-03-16T17:12:41.637Z,7.10
2019-03-16T17:15:12.071Z,7.10
2019-03-16T17:17:42.012Z,7.00
2019-03-16T17:20:12.959Z,7.00
2019-03-16T17:22:42.420Z,7.00
2019-03-16T17:25:11.869Z,7.00
2019-03-16T17:27:41.280Z,6.90
2019-03-16T17:30:13.547Z,6.90
2019-03-16T17:32:43.107Z,6.90
2019-03-16T17:35:12.803Z,6.80
2019-03-16T17:37:42.256Z,6.80
2019-03-16T17:40:11.677Z,6.70
2019-03-16T17:42:41.052Z,6.70
2019-03-16T17:45:11.529Z,6.70
2019-03-16T17:47:40.973Z,6.60
2019-03-16T17:50:10.419Z,6.60
2019-03-16T17:52:39.829Z,6.50
2019-03-16T17:55:09.664Z,6.50
2019-03-16T17:57:39.064Z,6.50
2019-03-16T18:00:10.928Z,6.50
2019-03-16T18:02:50.541Z,6.40
2019-03-16T18:05:11.354Z,6.30
2019-03-16T18:07:40.728Z,6.30
2019-03-16T18:10:10.521Z,6.30
2019-03-16T18:12:40.856Z,6.30
2019-03-16T18:15:11.837Z,6.20
2019-03-16T18:17:41.560Z,6.10
2019-03-16T18:20:12.041Z,6.10
2019-03-16T18:22:41.816Z,6.00
2019-03-16T18:25:11.407Z,6.00
2019-03-16T18:27:40.920Z,5.90
2019-03-16T18:30:12.223Z,5.80
2019-03-16T18:32:41.554Z,5.70
2019-03-16T18:35:10.867Z,5.70
2019-03-16T18:37:40.222Z,5.60
2019-03-16T18:40:10.439Z,5.60
2019-03-16T18:42:39.693Z,5.60
2019-03-16T18:45:11.483Z,5.50
2019-03-16T18:47:40.851Z,5.50
2019-03-16T18:50:10.273Z,5.40
2019-03-16T18:52:39.920Z,5.40
2019-03-16T18:55:10.327Z,5.30
2019-03-16T18:57:39.682Z,5.30
2019-03-16T19:00:10.207Z,5.30
2019-03-16T19:02:39.470Z,5.20
2019-03-16T19:05:09.242Z,5.20
2019-03-16T19:07:38.781Z,5.10
2019-03-16T19:10:09.395Z,5.00
2019-03-16T19:12:39.053Z,4.90
2019-03-16T19:15:10.204Z,4.90
2019-03-16T19:17:39.574Z,4.90
2019-03-16T19:20:11.595Z,4.90
2019-03-16T19:22:40.982Z,4.90
2019-03-16T19:25:11.899Z,4.90
2019-03-16T19:27:41.260Z,4.90
2019-03-16T19:30:12.588Z,4.90
2019-03-16T19:32:41.791Z,4.90
2019-03-16T19:35:11.088Z,4.90
2019-03-16T19:37:40.358Z,4.90
2019-03-16T19:40:10.527Z,4.90
2019-03-16T19:42:39.957Z,4.90
2019-03-16T19:45:10.339Z,4.80
2019-03-16T19:47:39.905Z,4.90
2019-03-16T19:50:10.205Z,4.90
2019-03-16T19:52:39.561Z,4.90
2019-03-16T19:55:10.060Z,4.90
2019-03-16T19:57:39.388Z,5.00
2019-03-16T20:00:10.358Z,5.00
2019-03-16T20:02:47.285Z,5.00
2019-03-16T20:05:10.758Z,5.00
2019-03-16T20:07:40.202Z,5.10
2019-03-16T20:10:10.796Z,5.10
2019-03-16T20:12:40.112Z,5.10
2019-03-16T20:15:09.925Z,5.10
2019-03-16T20:17:39.615Z,5.20
2019-03-16T20:20:09.608Z,5.20
2019-03-16T20:22:38.932Z,5.30
2019-03-16T20:25:08.256Z,5.30
2019-03-16T20:27:37.564Z,5.30
2019-03-16T20:30:07.869Z,5.40
2019-03-16T20:32:37.274Z,5.40
2019-03-16T20:35:06.735Z,5.50
2019-03-16T20:37:36.063Z,5.50
2019-03-16T20:40:06.586Z,5.50
2019-03-16T20:42:36.504Z,5.50
2019-03-16T20:45:06.440Z,5.50
2019-03-16T20:47:35.731Z,5.50
2019-03-16T20:50:06.073Z,5.50
2019-03-16T20:52:35.343Z,5.50
2019-03-16T20:55:05.178Z,5.50
2019-03-16T20:57:34.549Z,5.50
2019-03-16T21:00:04.535Z,5.50
2019-03-16T21:02:33.799Z,5.50
2019-03-16T21:05:03.169Z,5.50
2019-03-16T21:07:32.434Z,5.50
2019-03-16T21:10:01.793Z,5.50
2019-03-16T21:12:31.066Z,5.50
2019-03-16T21:15:00.624Z,5.40
2019-03-16T21:17:29.912Z,5.40
2019-03-16T21:19:59.276Z,5.40
2019-03-16T21:22:35.551Z,5.40
2019-03-16T21:24:59.540Z,5.40
2019-03-16T21:27:28.827Z,5.30
2019-03-16T21:29:58.330Z,5.30
2019-03-16T21:32:27.700Z,5.30
2019-03-16T21:34:57.011Z,5.20
2019-03-16T21:37:26.348Z,5.20
2019-03-16T21:39:56.118Z,5.20
2019-03-16T21:42:25.485Z,5.20
2019-03-16T21:44:54.852Z,5.20
2019-03-16T21:47:24.202Z,5.20
2019-03-16T21:49:53.531Z,5.20
2019-03-16T21:52:22.910Z,5.20
2019-03-16T21:54:52.230Z,5.20
2019-03-16T21:57:21.673Z,5.20
2019-03-16T21:59:51.410Z,5.20
2019-03-16T22:02:20.662Z,5.20
2019-03-16T22:04:49.951Z,5.20
2019-03-16T22:07:19.271Z,5.30
2019-03-16T22:09:48.531Z,5.30
2019-03-16T22:12:18.312Z,5.30
2019-03-16T22:14:47.550Z,5.30
2019-03-16T22:17:17.622Z,5.40
2019-03-16T22:19:47.701Z,5.30
2019-03-16T22:22:17.025Z,5.30
2019-03-16T22:24:46.300Z,5.40
2019-03-16T22:27:15.628Z,5.40
2019-03-16T22:29:44.952Z,5.40
2019-03-16T22:32:14.280Z,5.40
2019-03-16T22:34:43.622Z,5.50
2019-03-16T22:37:12.849Z,5.50
2019-03-16T22:39:42.188Z,5.50
2019-03-16T22:42:11.489Z,5.50
2019-03-16T22:44:40.725Z,5.50
2019-03-16T22:47:10.001Z,5.50
2019-03-16T22:49:39.263Z,5.50
2019-03-16T22:52:08.549Z,5.40
2019-03-16T22:54:37.890Z,5.50
2019-03-16T22:57:07.223Z,5.40
2019-03-16T22:59:38.616Z,5.50
2019-03-16T23:02:08.126Z,5.40
2019-03-16T23:04:37.380Z,5.40
2019-03-16T23:07:06.606Z,5.50
2019-03-16T23:09:35.960Z,5.40
2019-03-16T23:12:05.272Z,5.40
2019-03-16T23:14:34.537Z,5.40
2019-03-16T23:17:03.772Z,5.50
2019-03-16T23:19:33.009Z,5.40
2019-03-16T23:22:02.442Z,5.40
2019-03-16T23:24:31.762Z,5.40
2019-03-16T23:27:01.437Z,5.40
2019-03-16T23:29:30.799Z,5.50
2019-03-16T23:32:00.038Z,5.50
2019-03-16T23:34:29.257Z,5.50
2019-03-16T23:36:58.587Z,5.50
2019-03-16T23:39:27.828Z,5.40
2019-03-16T23:41:57.126Z,5.40
2019-03-16T23:44:26.466Z,5.40
2019-03-16T23:46:55.978Z,5.50
2019-03-16T23:49:25.217Z,5.50
2019-03-16T23:51:55.029Z,5.50
2019-03-16T23:54:24.343Z,5.50
2019-03-16T23:56:53.582Z,5.50
2019-03-16T23:59:22.936Z,5.50
